sensor_id;sensor_type;location;lat;lon;timestamp;P1;durP1;ratioP1;P2;durP2;ratioP2
73132;SDS011;61320;52.008;4.530;2022-12-17T07:35:39;53.59;;;51.89;;
73132;SDS011;61320;52.008;4.530;2022-12-17T07:38:23;53.67;;;51.79;;
73132;SDS011;61320;52.008;4.530;2022-12-17T07:41:07;53.09;;;51.24;;
73132;SDS011;61320;52.008;4.530;2022-12-17T07:43:51;54.43;;;52.25;;
73132;SDS011;61320;52.008;4.530;2022-12-17T07:46:35;52.94;;;51.14;;
73132;SDS011;61320;52.008;4.530;2022-12-17T07:49:19;54.15;;;51.98;;
73132;SDS011;61320;52.008;4.530;2022-12-17T07:52:03;50.75;;;49.54;;
73132;SDS011;61320;52.008;4.530;2022-12-17T07:54:47;50.53;;;48.91;;
73132;SDS011;61320;52.008;4.530;2022-12-17T07:57:31;50.71;;;49.44;;
73132;SDS011;61320;52.008;4.530;2022-12-17T08:00:15;50.86;;;49.46;;
73132;SDS011;61320;52.008;4.530;2022-12-17T08:02:59;49.52;;;48.03;;
73132;SDS011;61320;52.008;4.530;2022-12-17T08:05:45;49.36;;;48.25;;
73132;SDS011;61320;52.008;4.530;2022-12-17T08:08:29;48.93;;;47.85;;
73132;SDS011;61320;52.008;4.530;2022-12-17T08:11:13;48.93;;;47.82;;
73132;SDS011;61320;52.008;4.530;2022-12-17T08:13:57;49.60;;;48.90;;
73132;SDS011;61320;52.008;4.530;2022-12-17T08:16:41;51.75;;;50.95;;
73132;SDS011;61320;52.008;4.530;2022-12-17T08:19:25;51.84;;;50.73;;
73132;SDS011;61320;52.008;4.530;2022-12-17T08:22:09;50.47;;;49.32;;
73132;SDS011;61320;52.008;4.530;2022-12-17T08:24:53;50.55;;;49.61;;
73132;SDS011;61320;52.008;4.530;2022-12-17T08:27:37;50.37;;;49.39;;
73132;SDS011;61320;52.008;4.530;2022-12-17T08:30:21;51.66;;;50.60;;
73132;SDS011;61320;52.008;4.530;2022-12-17T08:33:05;50.49;;;49.72;;
73132;SDS011;61320;52.008;4.530;2022-12-17T08:35:53;52.30;;;51.36;;
73132;SDS011;61320;52.008;4.530;2022-12-17T08:38:39;53.12;;;51.89;;
73132;SDS011;61320;52.008;4.530;2022-12-17T08:41:23;53.16;;;51.85;;
73132;SDS011;61320;52.008;4.530;2022-12-17T08:44:07;52.84;;;51.98;;
73132;SDS011;61320;52.008;4.530;2022-12-17T08:46:51;52.98;;;52.22;;
73132;SDS011;61320;52.008;4.530;2022-12-17T08:49:35;52.28;;;51.58;;
73132;SDS011;61320;52.008;4.530;2022-12-17T08:52:20;53.57;;;52.42;;
73132;SDS011;61320;52.008;4.530;2022-12-17T08:55:07;52.12;;;51.35;;
73132;SDS011;61320;52.008;4.530;2022-12-17T08:57:52;53.31;;;52.30;;
73132;SDS011;61320;52.008;4.530;2022-12-17T09:00:37;53.58;;;52.75;;
73132;SDS011;61320;52.008;4.530;2022-12-17T09:03:22;52.69;;;52.15;;
73132;SDS011;61320;52.008;4.530;2022-12-17T09:06:07;53.50;;;52.77;;
73132;SDS011;61320;52.008;4.530;2022-12-17T09:08:51;51.36;;;50.81;;
73132;SDS011;61320;52.008;4.530;2022-12-17T09:11:35;52.94;;;52.06;;
73132;SDS011;61320;52.008;4.530;2022-12-17T09:14:19;53.23;;;52.35;;
73132;SDS011;61320;52.008;4.530;2022-12-17T09:17:03;54.37;;;53.84;;
73132;SDS011;61320;52.008;4.530;2022-12-17T09:19:47;53.18;;;52.85;;
73132;SDS011;61320;52.008;4.530;2022-12-17T09:22:31;52.88;;;52.13;;
73132;SDS011;61320;52.008;4.530;2022-12-17T09:25:15;53.28;;;52.87;;
73132;SDS011;61320;52.008;4.530;2022-12-17T09:27:59;53.44;;;52.77;;
73132;SDS011;61320;52.008;4.530;2022-12-17T09:30:44;52.48;;;52.07;;
73132;SDS011;61320;52.008;4.530;2022-12-17T09:33:28;53.62;;;52.86;;
73132;SDS011;61320;52.008;4.530;2022-12-17T09:36:12;54.01;;;53.52;;
73132;SDS011;61320;52.008;4.530;2022-12-17T09:38:57;54.17;;;53.27;;
73132;SDS011;61320;52.008;4.530;2022-12-17T09:45:19;55.04;;;54.22;;
73132;SDS011;61320;52.008;4.530;2022-12-17T09:51:32;55.19;;;54.32;;
73132;SDS011;61320;52.008;4.530;2022-12-17T09:54:36;54.67;;;54.31;;
73132;SDS011;61320;52.008;4.530;2022-12-17T09:57:29;53.74;;;53.16;;
73132;SDS011;61320;52.008;4.530;2022-12-17T10:00:22;54.04;;;53.77;;
73132;SDS011;61320;52.008;4.530;2022-12-17T10:03:11;53.97;;;53.72;;
73132;SDS011;61320;52.008;4.530;2022-12-17T10:06:01;54.84;;;54.47;;
73132;SDS011;61320;52.008;4.530;2022-12-17T10:09:00;54.30;;;54.18;;
73132;SDS011;61320;52.008;4.530;2022-12-17T10:11:52;54.38;;;54.09;;
73132;SDS011;61320;52.008;4.530;2022-12-17T10:14:36;55.34;;;54.92;;
73132;SDS011;61320;52.008;4.530;2022-12-17T10:17:23;55.15;;;54.38;;
73132;SDS011;61320;52.008;4.530;2022-12-17T10:20:13;55.29;;;54.89;;
73132;SDS011;61320;52.008;4.530;2022-12-17T10:23:04;54.74;;;54.19;;
73132;SDS011;61320;52.008;4.530;2022-12-17T10:26:05;54.54;;;54.09;;
73132;SDS011;61320;52.008;4.530;2022-12-17T10:28:49;52.77;;;52.50;;
73132;SDS011;61320;52.008;4.530;2022-12-17T10:31:33;52.79;;;52.55;;
73132;SDS011;61320;52.008;4.530;2022-12-17T10:34:18;52.78;;;52.61;;
73132;SDS011;61320;52.008;4.530;2022-12-17T10:37:04;53.10;;;52.70;;
73132;SDS011;61320;52.008;4.530;2022-12-17T10:39:58;53.17;;;53.06;;
73132;SDS011;61320;52.008;4.530;2022-12-17T10:42:59;53.36;;;53.14;;
73132;SDS011;61320;52.008;4.530;2022-12-17T10:45:51;52.41;;;52.30;;
73132;SDS011;61320;52.008;4.530;2022-12-17T10:48:38;51.02;;;50.86;;
73132;SDS011;61320;52.008;4.530;2022-12-17T10:51:32;52.35;;;51.96;;
73132;SDS011;61320;52.008;4.530;2022-12-17T10:54:22;50.16;;;50.03;;
73132;SDS011;61320;52.008;4.530;2022-12-17T10:57:23;51.70;;;51.39;;
73132;SDS011;61320;52.008;4.530;2022-12-17T11:03:00;52.21;;;52.10;;
73132;SDS011;61320;52.008;4.530;2022-12-17T11:05:45;51.96;;;51.76;;
73132;SDS011;61320;52.008;4.530;2022-12-17T11:08:36;51.56;;;51.36;;
73132;SDS011;61320;52.008;4.530;2022-12-17T11:11:25;50.92;;;50.67;;
73132;SDS011;61320;52.008;4.530;2022-12-17T11:14:09;52.92;;;52.46;;
73132;SDS011;61320;52.008;4.530;2022-12-17T11:16:58;53.69;;;53.16;;
73132;SDS011;61320;52.008;4.530;2022-12-17T11:19:49;54.22;;;54.17;;
73132;SDS011;61320;52.008;4.530;2022-12-17T11:25:32;55.15;;;55.10;;
73132;SDS011;61320;52.008;4.530;2022-12-17T11:28:31;54.69;;;54.43;;
73132;SDS011;61320;52.008;4.530;2022-12-17T11:37:18;53.75;;;53.51;;
73132;SDS011;61320;52.008;4.530;2022-12-17T11:40:23;55.33;;;55.14;;
73132;SDS011;61320;52.008;4.530;2022-12-17T11:49:34;55.41;;;55.40;;
73132;SDS011;61320;52.008;4.530;2022-12-17T11:52:48;55.15;;;54.92;;
73132;SDS011;61320;52.008;4.530;2022-12-17T11:59:11;54.09;;;54.08;;
73132;SDS011;61320;52.008;4.530;2022-12-17T12:17:51;54.26;;;54.24;;
73132;SDS011;61320;52.008;4.530;2022-12-17T12:27:48;55.54;;;55.50;;
73132;SDS011;61320;52.008;4.530;2022-12-17T12:33:58;52.87;;;52.65;;
73132;SDS011;61320;52.008;4.530;2022-12-17T12:36:47;54.05;;;53.93;;
73132;SDS011;61320;52.008;4.530;2022-12-17T12:39:36;54.56;;;54.42;;
73132;SDS011;61320;52.008;4.530;2022-12-17T12:42:34;54.97;;;54.65;;
73132;SDS011;61320;52.008;4.530;2022-12-17T12:45:43;54.17;;;54.09;;
73132;SDS011;61320;52.008;4.530;2022-12-17T12:51:28;54.05;;;54.02;;
73132;SDS011;61320;52.008;4.530;2022-12-17T12:57:38;55.26;;;55.21;;
73132;SDS011;61320;52.008;4.530;2022-12-17T13:03:32;55.47;;;55.45;;
73132;SDS011;61320;52.008;4.530;2022-12-17T13:11:40;56.96;;;56.78;;
73132;SDS011;61320;52.008;4.530;2022-12-17T13:14:11;56.40;;;55.99;;
73132;SDS011;61320;52.008;4.530;2022-12-17T13:20:20;55.94;;;55.85;;
73132;SDS011;61320;52.008;4.530;2022-12-17T13:43:18;60.02;;;59.68;;
73132;SDS011;61320;52.008;4.530;2022-12-17T13:56:25;61.92;;;61.55;;
73132;SDS011;61320;52.008;4.530;2022-12-17T13:58:52;62.84;;;62.50;;
73132;SDS011;61320;52.008;4.530;2022-12-17T14:01:20;63.62;;;63.30;;
73132;SDS011;61320;52.008;4.530;2022-12-17T14:03:53;64.45;;;64.16;;
73132;SDS011;61320;52.008;4.530;2022-12-17T14:06:21;64.84;;;64.56;;
73132;SDS011;61320;52.008;4.530;2022-12-17T14:08:51;62.88;;;62.85;;
73132;SDS011;61320;52.008;4.530;2022-12-17T14:11:20;64.98;;;64.49;;
73132;SDS011;61320;52.008;4.530;2022-12-17T14:14:10;64.33;;;64.11;;
73132;SDS011;61320;52.008;4.530;2022-12-17T14:17:00;64.46;;;63.67;;
73132;SDS011;61320;52.008;4.530;2022-12-17T14:19:27;64.88;;;64.56;;
73132;SDS011;61320;52.008;4.530;2022-12-17T14:21:56;65.77;;;64.96;;
73132;SDS011;61320;52.008;4.530;2022-12-17T14:24:23;66.11;;;65.53;;
73132;SDS011;61320;52.008;4.530;2022-12-17T14:26:54;66.93;;;66.12;;
73132;SDS011;61320;52.008;4.530;2022-12-17T14:29:23;66.00;;;65.58;;
73132;SDS011;61320;52.008;4.530;2022-12-17T14:31:54;65.83;;;65.33;;
73132;SDS011;61320;52.008;4.530;2022-12-17T14:34:20;66.77;;;66.16;;
73132;SDS011;61320;52.008;4.530;2022-12-17T14:36:51;67.06;;;66.17;;
73132;SDS011;61320;52.008;4.530;2022-12-17T14:39:22;66.13;;;65.03;;
73132;SDS011;61320;52.008;4.530;2022-12-17T14:41:50;65.95;;;65.11;;
73132;SDS011;61320;52.008;4.530;2022-12-17T14:44:37;66.75;;;65.80;;
73132;SDS011;61320;52.008;4.530;2022-12-17T14:50:53;65.38;;;64.80;;
73132;SDS011;61320;52.008;4.530;2022-12-17T14:57:18;68.68;;;67.40;;
73132;SDS011;61320;52.008;4.530;2022-12-17T14:59:45;68.91;;;67.43;;
73132;SDS011;61320;52.008;4.530;2022-12-17T15:02:17;69.65;;;67.86;;
73132;SDS011;61320;52.008;4.530;2022-12-17T15:04:47;70.09;;;68.03;;
73132;SDS011;61320;52.008;4.530;2022-12-17T15:07:18;69.97;;;68.56;;
73132;SDS011;61320;52.008;4.530;2022-12-17T15:09:51;69.73;;;68.00;;
73132;SDS011;61320;52.008;4.530;2022-12-17T15:22:11;67.96;;;65.89;;
73132;SDS011;61320;52.008;4.530;2022-12-17T15:24:42;67.21;;;65.34;;
73132;SDS011;61320;52.008;4.530;2022-12-17T15:27:15;66.16;;;64.67;;
73132;SDS011;61320;52.008;4.530;2022-12-17T15:29:44;65.92;;;64.13;;
73132;SDS011;61320;52.008;4.530;2022-12-17T15:32:17;67.67;;;65.81;;
73132;SDS011;61320;52.008;4.530;2022-12-17T15:34:44;65.97;;;64.66;;
73132;SDS011;61320;52.008;4.530;2022-12-17T15:37:10;65.85;;;64.34;;
73132;SDS011;61320;52.008;4.530;2022-12-17T15:39:36;66.67;;;64.55;;
73132;SDS011;61320;52.008;4.530;2022-12-17T15:42:02;68.15;;;66.12;;
73132;SDS011;61320;52.008;4.530;2022-12-17T15:44:46;67.24;;;64.88;;
73132;SDS011;61320;52.008;4.530;2022-12-17T15:47:11;67.14;;;65.05;;
73132;SDS011;61320;52.008;4.530;2022-12-17T15:49:37;68.93;;;66.66;;
73132;SDS011;61320;52.008;4.530;2022-12-17T15:52:03;67.06;;;64.68;;
73132;SDS011;61320;52.008;4.530;2022-12-17T15:54:28;68.69;;;65.84;;
73132;SDS011;61320;52.008;4.530;2022-12-17T15:56:54;69.17;;;66.52;;
73132;SDS011;61320;52.008;4.530;2022-12-17T15:59:20;66.86;;;64.51;;
73132;SDS011;61320;52.008;4.530;2022-12-17T16:01:46;68.43;;;65.89;;
73132;SDS011;61320;52.008;4.530;2022-12-17T16:04:12;66.56;;;64.44;;
73132;SDS011;61320;52.008;4.530;2022-12-17T16:06:37;67.92;;;65.31;;
73132;SDS011;61320;52.008;4.530;2022-12-17T16:09:03;67.92;;;65.39;;
73132;SDS011;61320;52.008;4.530;2022-12-17T16:11:29;68.23;;;65.61;;
73132;SDS011;61320;52.008;4.530;2022-12-17T16:13:54;70.53;;;67.73;;
73132;SDS011;61320;52.008;4.530;2022-12-17T16:16:20;70.06;;;67.19;;
73132;SDS011;61320;52.008;4.530;2022-12-17T16:18:47;69.09;;;66.36;;
73132;SDS011;61320;52.008;4.530;2022-12-17T16:21:12;70.89;;;67.87;;
73132;SDS011;61320;52.008;4.530;2022-12-17T16:23:38;71.33;;;67.90;;
73132;SDS011;61320;52.008;4.530;2022-12-17T16:26:04;73.65;;;69.63;;
73132;SDS011;61320;52.008;4.530;2022-12-17T16:28:32;73.18;;;69.07;;
73132;SDS011;61320;52.008;4.530;2022-12-17T16:30:59;74.02;;;69.87;;
73132;SDS011;61320;52.008;4.530;2022-12-17T16:33:31;71.30;;;67.45;;
73132;SDS011;61320;52.008;4.530;2022-12-17T16:36:01;73.17;;;68.76;;
73132;SDS011;61320;52.008;4.530;2022-12-17T16:38:28;72.95;;;68.88;;
73132;SDS011;61320;52.008;4.530;2022-12-17T16:40:57;74.46;;;69.69;;
73132;SDS011;61320;52.008;4.530;2022-12-17T16:43:25;74.34;;;70.33;;
73132;SDS011;61320;52.008;4.530;2022-12-17T16:45:52;74.14;;;69.16;;
73132;SDS011;61320;52.008;4.530;2022-12-17T16:48:19;73.96;;;69.23;;
73132;SDS011;61320;52.008;4.530;2022-12-17T16:50:46;72.16;;;67.97;;
73132;SDS011;61320;52.008;4.530;2022-12-17T16:53:13;72.07;;;67.64;;
73132;SDS011;61320;52.008;4.530;2022-12-17T16:55:46;72.54;;;67.49;;
73132;SDS011;61320;52.008;4.530;2022-12-17T16:58:14;71.95;;;68.02;;
73132;SDS011;61320;52.008;4.530;2022-12-17T17:00:41;70.40;;;66.34;;
73132;SDS011;61320;52.008;4.530;2022-12-17T17:03:07;70.53;;;66.49;;
73132;SDS011;61320;52.008;4.530;2022-12-17T17:05:33;70.73;;;66.04;;
73132;SDS011;61320;52.008;4.530;2022-12-17T17:08:01;70.88;;;66.18;;
73132;SDS011;61320;52.008;4.530;2022-12-17T17:10:28;71.64;;;66.27;;
73132;SDS011;61320;52.008;4.530;2022-12-17T17:12:54;72.76;;;67.33;;
73132;SDS011;61320;52.008;4.530;2022-12-17T17:15:20;74.21;;;68.29;;
73132;SDS011;61320;52.008;4.530;2022-12-17T17:17:49;73.41;;;67.68;;
73132;SDS011;61320;52.008;4.530;2022-12-17T17:20:15;70.13;;;65.72;;
73132;SDS011;61320;52.008;4.530;2022-12-17T17:22:40;72.99;;;67.41;;
73132;SDS011;61320;52.008;4.530;2022-12-17T17:25:06;72.43;;;67.08;;
73132;SDS011;61320;52.008;4.530;2022-12-17T17:27:32;72.39;;;66.93;;
73132;SDS011;61320;52.008;4.530;2022-12-17T17:29:58;74.00;;;67.73;;
73132;SDS011;61320;52.008;4.530;2022-12-17T17:32:24;75.99;;;68.72;;
73132;SDS011;61320;52.008;4.530;2022-12-17T17:34:50;74.97;;;68.32;;
73132;SDS011;61320;52.008;4.530;2022-12-17T17:37:16;76.27;;;69.30;;
73132;SDS011;61320;52.008;4.530;2022-12-17T17:39:42;75.44;;;69.22;;
73132;SDS011;61320;52.008;4.530;2022-12-17T17:42:08;73.71;;;68.01;;
73132;SDS011;61320;52.008;4.530;2022-12-17T17:44:34;76.48;;;70.07;;
73132;SDS011;61320;52.008;4.530;2022-12-17T17:47:00;75.30;;;68.75;;
73132;SDS011;61320;52.008;4.530;2022-12-17T17:49:26;74.23;;;67.54;;
73132;SDS011;61320;52.008;4.530;2022-12-17T17:51:51;75.36;;;68.18;;
73132;SDS011;61320;52.008;4.530;2022-12-17T17:54:17;73.47;;;66.77;;
73132;SDS011;61320;52.008;4.530;2022-12-17T17:56:44;72.05;;;65.88;;
73132;SDS011;61320;52.008;4.530;2022-12-17T17:59:10;73.18;;;67.01;;
73132;SDS011;61320;52.008;4.530;2022-12-17T18:01:39;72.94;;;66.98;;
73132;SDS011;61320;52.008;4.530;2022-12-17T18:04:09;70.40;;;65.27;;
73132;SDS011;61320;52.008;4.530;2022-12-17T18:06:37;70.84;;;65.01;;
73132;SDS011;61320;52.008;4.530;2022-12-17T18:09:04;72.62;;;66.27;;
73132;SDS011;61320;52.008;4.530;2022-12-17T18:11:30;70.90;;;65.18;;
73132;SDS011;61320;52.008;4.530;2022-12-17T18:13:57;71.12;;;65.66;;
73132;SDS011;61320;52.008;4.530;2022-12-17T18:19:07;70.76;;;64.70;;
73132;SDS011;61320;52.008;4.530;2022-12-17T18:21:34;71.25;;;65.38;;
73132;SDS011;61320;52.008;4.530;2022-12-17T18:24:01;69.50;;;64.74;;
73132;SDS011;61320;52.008;4.530;2022-12-17T18:26:29;68.56;;;64.00;;
73132;SDS011;61320;52.008;4.530;2022-12-17T18:28:57;72.09;;;66.30;;
73132;SDS011;61320;52.008;4.530;2022-12-17T18:31:27;73.11;;;66.68;;
73132;SDS011;61320;52.008;4.530;2022-12-17T18:34:00;73.16;;;67.34;;
73132;SDS011;61320;52.008;4.530;2022-12-17T18:36:30;74.59;;;68.13;;
73132;SDS011;61320;52.008;4.530;2022-12-17T18:39:06;72.45;;;66.22;;
73132;SDS011;61320;52.008;4.530;2022-12-17T18:41:40;70.95;;;65.78;;
73132;SDS011;61320;52.008;4.530;2022-12-17T18:44:25;70.95;;;65.14;;
73132;SDS011;61320;52.008;4.530;2022-12-17T18:46:53;72.70;;;66.07;;
73132;SDS011;61320;52.008;4.530;2022-12-17T18:49:19;76.53;;;68.51;;
73132;SDS011;61320;52.008;4.530;2022-12-17T18:51:47;74.60;;;67.64;;
73132;SDS011;61320;52.008;4.530;2022-12-17T18:54:24;75.71;;;68.19;;
73132;SDS011;61320;52.008;4.530;2022-12-17T18:56:51;73.86;;;66.82;;
73132;SDS011;61320;52.008;4.530;2022-12-17T18:59:19;73.70;;;66.63;;
73132;SDS011;61320;52.008;4.530;2022-12-17T19:01:46;73.01;;;66.37;;
73132;SDS011;61320;52.008;4.530;2022-12-17T19:04:14;74.16;;;67.25;;
73132;SDS011;61320;52.008;4.530;2022-12-17T19:06:42;72.88;;;66.09;;
73132;SDS011;61320;52.008;4.530;2022-12-17T19:09:14;74.27;;;66.88;;
73132;SDS011;61320;52.008;4.530;2022-12-17T19:11:43;77.93;;;69.44;;
73132;SDS011;61320;52.008;4.530;2022-12-17T19:14:09;77.75;;;69.33;;
73132;SDS011;61320;52.008;4.530;2022-12-17T19:16:34;77.72;;;69.61;;
73132;SDS011;61320;52.008;4.530;2022-12-17T19:19:01;74.13;;;67.17;;
73132;SDS011;61320;52.008;4.530;2022-12-17T19:21:28;78.46;;;69.67;;
73132;SDS011;61320;52.008;4.530;2022-12-17T19:23:59;75.91;;;68.13;;
73132;SDS011;61320;52.008;4.530;2022-12-17T19:26:27;77.90;;;70.04;;
73132;SDS011;61320;52.008;4.530;2022-12-17T19:28:54;79.05;;;71.17;;
73132;SDS011;61320;52.008;4.530;2022-12-17T19:31:23;79.43;;;70.78;;
73132;SDS011;61320;52.008;4.530;2022-12-17T19:33:57;80.24;;;72.10;;
73132;SDS011;61320;52.008;4.530;2022-12-17T19:36:26;75.68;;;68.10;;
73132;SDS011;61320;52.008;4.530;2022-12-17T19:38:55;73.27;;;65.46;;
73132;SDS011;61320;52.008;4.530;2022-12-17T19:41:23;71.06;;;63.92;;
73132;SDS011;61320;52.008;4.530;2022-12-17T19:43:54;69.05;;;63.15;;
73132;SDS011;61320;52.008;4.530;2022-12-17T19:46:21;67.94;;;61.32;;
73132;SDS011;61320;52.008;4.530;2022-12-17T19:48:48;67.27;;;60.50;;
73132;SDS011;61320;52.008;4.530;2022-12-17T19:51:16;66.98;;;60.11;;
73132;SDS011;61320;52.008;4.530;2022-12-17T19:53:43;67.68;;;60.92;;
73132;SDS011;61320;52.008;4.530;2022-12-17T19:56:20;65.79;;;59.84;;
73132;SDS011;61320;52.008;4.530;2022-12-17T19:58:48;63.68;;;58.51;;
73132;SDS011;61320;52.008;4.530;2022-12-17T20:01:20;65.44;;;60.28;;
73132;SDS011;61320;52.008;4.530;2022-12-17T20:03:48;65.95;;;60.43;;
73132;SDS011;61320;52.008;4.530;2022-12-17T20:06:16;66.12;;;60.69;;
73132;SDS011;61320;52.008;4.530;2022-12-17T20:08:43;65.89;;;60.43;;
73132;SDS011;61320;52.008;4.530;2022-12-17T20:11:09;63.81;;;59.18;;
73132;SDS011;61320;52.008;4.530;2022-12-17T20:16:26;63.58;;;58.76;;
73132;SDS011;61320;52.008;4.530;2022-12-17T20:18:54;63.27;;;58.48;;
73132;SDS011;61320;52.008;4.530;2022-12-17T20:21:19;63.87;;;59.02;;
73132;SDS011;61320;52.008;4.530;2022-12-17T20:23:45;66.34;;;60.97;;
73132;SDS011;61320;52.008;4.530;2022-12-17T20:26:11;65.76;;;60.54;;
73132;SDS011;61320;52.008;4.530;2022-12-17T20:28:38;67.48;;;62.36;;
73132;SDS011;61320;52.008;4.530;2022-12-17T20:31:03;68.89;;;63.51;;
73132;SDS011;61320;52.008;4.530;2022-12-17T20:33:29;68.30;;;63.33;;
73132;SDS011;61320;52.008;4.530;2022-12-17T20:36:01;69.48;;;63.51;;
73132;SDS011;61320;52.008;4.530;2022-12-17T20:38:28;69.09;;;63.28;;
73132;SDS011;61320;52.008;4.530;2022-12-17T20:40:54;68.57;;;63.06;;
73132;SDS011;61320;52.008;4.530;2022-12-17T20:43:19;69.96;;;64.03;;
73132;SDS011;61320;52.008;4.530;2022-12-17T20:45:48;69.30;;;63.87;;
73132;SDS011;61320;52.008;4.530;2022-12-17T20:48:16;70.51;;;64.71;;
73132;SDS011;61320;52.008;4.530;2022-12-17T20:50:42;68.99;;;63.31;;
73132;SDS011;61320;52.008;4.530;2022-12-17T20:53:12;71.13;;;65.21;;
73132;SDS011;61320;52.008;4.530;2022-12-17T20:55:40;71.59;;;64.96;;
73132;SDS011;61320;52.008;4.530;2022-12-17T20:58:06;71.52;;;65.41;;
73132;SDS011;61320;52.008;4.530;2022-12-17T21:00:31;71.56;;;65.00;;
73132;SDS011;61320;52.008;4.530;2022-12-17T21:02:57;68.16;;;62.01;;
73132;SDS011;61320;52.008;4.530;2022-12-17T21:05:23;63.89;;;58.86;;
73132;SDS011;61320;52.008;4.530;2022-12-17T21:07:50;64.00;;;58.86;;
73132;SDS011;61320;52.008;4.530;2022-12-17T21:10:16;63.94;;;58.82;;
73132;SDS011;61320;52.008;4.530;2022-12-17T21:12:42;64.96;;;59.18;;
73132;SDS011;61320;52.008;4.530;2022-12-17T21:15:33;64.25;;;58.72;;
73132;SDS011;61320;52.008;4.530;2022-12-17T21:17:59;61.85;;;56.83;;
73132;SDS011;61320;52.008;4.530;2022-12-17T21:20:24;64.95;;;58.78;;
73132;SDS011;61320;52.008;4.530;2022-12-17T21:22:50;65.93;;;60.06;;
73132;SDS011;61320;52.008;4.530;2022-12-17T21:25:15;67.05;;;59.70;;
73132;SDS011;61320;52.008;4.530;2022-12-17T21:27:41;64.20;;;58.22;;
73132;SDS011;61320;52.008;4.530;2022-12-17T21:30:06;64.79;;;58.63;;
73132;SDS011;61320;52.008;4.530;2022-12-17T21:32:33;64.41;;;58.20;;
73132;SDS011;61320;52.008;4.530;2022-12-17T21:34:58;65.24;;;58.81;;
73132;SDS011;61320;52.008;4.530;2022-12-17T21:37:24;64.10;;;57.91;;
73132;SDS011;61320;52.008;4.530;2022-12-17T21:39:49;65.35;;;58.55;;
73132;SDS011;61320;52.008;4.530;2022-12-17T21:42:15;64.66;;;58.74;;
73132;SDS011;61320;52.008;4.530;2022-12-17T21:44:59;65.35;;;58.90;;
73132;SDS011;61320;52.008;4.530;2022-12-17T21:47:24;66.42;;;59.49;;
73132;SDS011;61320;52.008;4.530;2022-12-17T21:49:50;64.89;;;58.60;;
73132;SDS011;61320;52.008;4.530;2022-12-17T21:52:16;66.57;;;60.06;;
73132;SDS011;61320;52.008;4.530;2022-12-17T21:54:41;65.91;;;59.31;;
73132;SDS011;61320;52.008;4.530;2022-12-17T21:57:07;65.09;;;58.82;;
73132;SDS011;61320;52.008;4.530;2022-12-17T21:59:32;64.78;;;58.66;;
73132;SDS011;61320;52.008;4.530;2022-12-17T22:01:58;63.32;;;57.27;;
73132;SDS011;61320;52.008;4.530;2022-12-17T22:04:23;62.93;;;57.21;;
73132;SDS011;61320;52.008;4.530;2022-12-17T22:06:50;62.62;;;57.01;;
73132;SDS011;61320;52.008;4.530;2022-12-17T22:09:15;63.76;;;57.75;;
73132;SDS011;61320;52.008;4.530;2022-12-17T22:11:41;64.58;;;58.56;;
73132;SDS011;61320;52.008;4.530;2022-12-17T22:14:08;68.10;;;61.20;;
73132;SDS011;61320;52.008;4.530;2022-12-17T22:16:37;65.29;;;59.13;;
73132;SDS011;61320;52.008;4.530;2022-12-17T22:19:08;66.95;;;60.46;;
73132;SDS011;61320;52.008;4.530;2022-12-17T22:21:35;64.57;;;58.45;;
73132;SDS011;61320;52.008;4.530;2022-12-17T22:24:03;64.57;;;58.04;;
73132;SDS011;61320;52.008;4.530;2022-12-17T22:26:29;66.16;;;59.35;;
73132;SDS011;61320;52.008;4.530;2022-12-17T22:28:55;64.51;;;57.99;;
73132;SDS011;61320;52.008;4.530;2022-12-17T22:31:21;63.61;;;58.06;;
73132;SDS011;61320;52.008;4.530;2022-12-17T22:34:06;63.63;;;57.38;;
73132;SDS011;61320;52.008;4.530;2022-12-17T22:36:34;66.16;;;58.74;;
73132;SDS011;61320;52.008;4.530;2022-12-17T22:39:00;62.05;;;56.82;;
73132;SDS011;61320;52.008;4.530;2022-12-17T22:41:28;63.15;;;57.69;;
73132;SDS011;61320;52.008;4.530;2022-12-17T22:44:12;63.48;;;58.07;;
73132;SDS011;61320;52.008;4.530;2022-12-17T22:46:38;63.81;;;57.94;;
73132;SDS011;61320;52.008;4.530;2022-12-17T22:49:03;66.87;;;59.34;;
73132;SDS011;61320;52.008;4.530;2022-12-17T22:51:29;65.66;;;59.06;;
73132;SDS011;61320;52.008;4.530;2022-12-17T22:53:54;65.19;;;58.60;;
73132;SDS011;61320;52.008;4.530;2022-12-17T22:56:20;64.21;;;57.60;;
73132;SDS011;61320;52.008;4.530;2022-12-17T22:58:47;64.75;;;57.70;;
73132;SDS011;61320;52.008;4.530;2022-12-17T23:01:13;62.10;;;56.15;;
73132;SDS011;61320;52.008;4.530;2022-12-17T23:03:38;64.67;;;57.44;;
73132;SDS011;61320;52.008;4.530;2022-12-17T23:06:08;62.50;;;55.90;;
73132;SDS011;61320;52.008;4.530;2022-12-17T23:08:35;63.11;;;56.22;;
73132;SDS011;61320;52.008;4.530;2022-12-17T23:11:05;62.91;;;56.38;;
73132;SDS011;61320;52.008;4.530;2022-12-17T23:13:32;61.05;;;54.96;;
73132;SDS011;61320;52.008;4.530;2022-12-17T23:15:58;61.33;;;55.27;;
73132;SDS011;61320;52.008;4.530;2022-12-17T23:18:23;62.21;;;55.62;;
73132;SDS011;61320;52.008;4.530;2022-12-17T23:20:49;64.30;;;57.42;;
73132;SDS011;61320;52.008;4.530;2022-12-17T23:23:14;63.26;;;56.42;;
73132;SDS011;61320;52.008;4.530;2022-12-17T23:25:40;63.52;;;56.87;;
73132;SDS011;61320;52.008;4.530;2022-12-17T23:28:05;61.96;;;55.29;;
73132;SDS011;61320;52.008;4.530;2022-12-17T23:30:30;61.83;;;55.43;;
73132;SDS011;61320;52.008;4.530;2022-12-17T23:32:56;59.99;;;53.93;;
73132;SDS011;61320;52.008;4.530;2022-12-17T23:35:21;58.30;;;52.74;;
73132;SDS011;61320;52.008;4.530;2022-12-17T23:37:47;58.49;;;52.65;;
73132;SDS011;61320;52.008;4.530;2022-12-17T23:40:13;56.65;;;51.34;;
73132;SDS011;61320;52.008;4.530;2022-12-17T23:42:39;56.56;;;51.39;;
73132;SDS011;61320;52.008;4.530;2022-12-17T23:45:06;56.95;;;51.06;;
73132;SDS011;61320;52.008;4.530;2022-12-17T23:47:32;59.00;;;52.52;;
73132;SDS011;61320;52.008;4.530;2022-12-17T23:49:58;58.12;;;51.98;;
73132;SDS011;61320;52.008;4.530;2022-12-17T23:52:23;59.58;;;53.38;;
73132;SDS011;61320;52.008;4.530;2022-12-17T23:54:49;57.80;;;52.22;;
73132;SDS011;61320;52.008;4.530;2022-12-17T23:57:14;59.19;;;53.56;;
73132;SDS011;61320;52.008;4.530;2022-12-17T23:59:40;59.37;;;53.97;;
